^^
Station Historical Data
Daily Summary for January 22, 2017 Units:  English    Metric   Both
« Previous Day
Next Day »
Daily Weekly Monthly Yearly Custom
  High: Low: Average:
Temperature: 50.0 °F 42.1 °F 46 °F
Dew Point: 48.3 °F 40.7 °F 43.9 °F
Humidity: 98% 86% 92%
Wind Speed: 3.0mph 0.0mph 0.4mph
Wind Gust: 12.0mph - -
Wind- - SE
Pressure: 29.85 in 29.70 in -
Precipitation: 0.02 in    
Historical Graphs
 
 
Tabular Data for January 22, 2017
Time Temperature Dew Point Pressure Wind Wind Speed Wind Gust Humidity Rainfall Rate (Hourly) Conditions
07:50 42.1 °F 41.6 °F 29.76 in Calm   1.0 mph 98% 0.00 in CLR
08:00 42.2 °F 41.7 °F 29.76 in Calm     98% 0.00 in CLR
08:10 42.3 °F 41.8 °F 29.75 in Calm     98% 0.00 in CLR
08:20 42.4 °F 41.9 °F 29.75 in Calm     98% 0.00 in CLR
08:30 42.4 °F 41.9 °F 29.74 in Calm     98% 0.00 in CLR
08:40 42.6 °F 42.1 °F 29.75 in Calm   1.0 mph 98% 0.00 in CLR
08:50 42.9 °F 42.4 °F 29.75 in Calm   1.0 mph 98% 0.00 in CLR
09:00 43.2 °F 42.7 °F 29.75 in Calm     98% 0.00 in CLR
09:10 43.4 °F 42.9 °F 29.75 in Calm   3.0 mph 98% 0.00 in CLR
09:20 43.3 °F 42.8 °F 29.75 in Calm   2.0 mph 98% 0.00 in CLR
09:30 43.6 °F 43.1 °F 29.76 in Calm   2.0 mph 98% 0.00 in CLR
09:40 43.7 °F 43.2 °F 29.76 in Calm   1.0 mph 98% 0.00 in CLR
09:50 43.6 °F 43.1 °F 29.76 in Calm   2.0 mph 98% 0.00 in CLR
10:00 43.7 °F 43.2 °F 29.76 in Calm   2.0 mph 98% 0.00 in CLR
10:10 43.9 °F 43.4 °F 29.76 in Calm   2.0 mph 98% 0.00 in CLR
10:20 43.9 °F 43.4 °F 29.76 in Calm   2.0 mph 98% 0.00 in CLR
10:30 44.0 °F 43.5 °F 29.77 in Calm   1.0 mph 98% 0.00 in CLR
10:50 43.6 °F 43.0 °F 29.77 in Calm   1.0 mph 98% 0.00 in CLR
11:00 44.0 °F 43.5 °F 29.77 in Calm   2.0 mph 98% 0.00 in CLR
11:10 44.3 °F 43.8 °F 29.76 in Calm   2.0 mph 98% 0.00 in CLR
11:20 44.7 °F 44.2 °F 29.76 in Calm   2.0 mph 98% 0.00 in CLR
11:30 44.7 °F 44.2 °F 29.76 in North 1.0 mph 3.0 mph 98% 0.00 in CLR
11:40 44.8 °F 44.3 °F 29.76 in Calm   2.0 mph 98% 0.00 in CLR
11:50 44.9 °F 44.4 °F 29.75 in Calm   1.0 mph 98% 0.00 in CLR
12:00 45.0 °F 44.5 °F 29.75 in Calm   2.0 mph 98% 0.01 in RA
12:10 45.0 °F 44.4 °F 29.74 in Calm   3.0 mph 98% 0.00 in
12:20 45.3 °F 44.8 °F 29.74 in Calm   3.0 mph 98% 0.00 in
12:30 45.5 °F 45.0 °F 29.73 in Calm   2.0 mph 98% 0.00 in
12:40 45.7 °F 45.2 °F 29.73 in North 1.0 mph 2.0 mph 98% 0.00 in
12:50 45.4 °F 44.9 °F 29.73 in East 1.0 mph 3.0 mph 98% 0.00 in
13:00 45.9 °F 45.4 °F 29.73 in Calm   2.0 mph 98% 0.00 in CLR
13:10 46.1 °F 45.6 °F 29.72 in NNW 1.0 mph 3.0 mph 98% 0.00 in BKN
13:20 46.6 °F 46.0 °F 29.72 in Calm   3.0 mph 98% 0.00 in BKN
13:30 47.1 °F 46.5 °F 29.72 in Calm   4.0 mph 98% 0.00 in BKN
13:40 47.5 °F 46.7 °F 29.72 in NNE 1.0 mph 4.0 mph 97% 0.00 in BKN
13:50 48.0 °F 47.2 °F 29.71 in Calm   3.0 mph 97% 0.00 in BKN
14:00 48.3 °F 47.5 °F 29.70 in Calm   1.0 mph 97% 0.00 in BKN
14:10 48.4 °F 47.6 °F 29.71 in Calm   3.0 mph 97% 0.00 in BKN
14:20 48.6 °F 47.8 °F 29.71 in NNW 1.0 mph 3.0 mph 97% 0.00 in BKN
14:30 47.6 °F 46.5 °F 29.72 in Calm   2.0 mph 96% 0.00 in BKN
14:40 47.5 °F 46.4 °F 29.72 in Calm   1.0 mph 96% 0.00 in BKN
14:50 47.8 °F 46.7 °F 29.71 in Calm   1.0 mph 96% 0.00 in BKN
15:00 48.2 °F 47.1 °F 29.71 in Calm   1.0 mph 96% 0.00 in BKN
15:10 48.7 °F 47.6 °F 29.71 in Calm   2.0 mph 96% 0.00 in BKN
15:20 49.4 °F 48.3 °F 29.72 in Calm   2.0 mph 96% 0.00 in BKN
15:30 49.7 °F 48.0 °F 29.72 in NNW 1.0 mph 4.0 mph 94% 0.00 in BKN
15:40 49.9 °F 47.7 °F 29.73 in Calm   2.0 mph 92% 0.00 in BKN
15:50 50.0 °F 47.5 °F 29.73 in ESE 1.0 mph 3.0 mph 91% 0.00 in BKN
16:00 50.0 °F 46.9 °F 29.74 in Calm   3.0 mph 89% 0.00 in BKN
16:10 49.7 °F 46.3 °F 29.74 in Calm   6.0 mph 88% 0.00 in BKN
16:20 49.4 °F 45.7 °F 29.74 in Calm   3.0 mph 87% 0.00 in BKN
16:30 49.3 °F 45.6 °F 29.74 in ENE 1.0 mph 5.0 mph 87% 0.00 in BKN
16:40 49.1 °F 45.4 °F 29.75 in Calm   2.0 mph 87% 0.00 in BKN
16:50 48.9 °F 44.9 °F 29.75 in Calm   5.0 mph 86% 0.00 in BKN
17:00 48.6 °F 44.6 °F 29.75 in NW 1.0 mph 5.0 mph 86% 0.00 in BKN
17:10 48.4 °F 44.4 °F 29.75 in Calm   3.0 mph 86% 0.00 in BKN
17:20 48.2 °F 44.2 °F 29.76 in East 1.0 mph 5.0 mph 86% 0.00 in BKN
17:30 48.1 °F 44.4 °F 29.76 in Calm   8.0 mph 87% 0.00 in BKN
17:40 47.9 °F 44.2 °F 29.76 in Calm   3.0 mph 87% 0.00 in BKN
17:50 47.9 °F 44.2 °F 29.76 in ENE 1.0 mph 7.0 mph 87% 0.00 in BKN
18:00 47.8 °F 44.1 °F 29.76 in Calm   3.0 mph 87% 0.00 in BKN
18:10 47.7 °F 44.0 °F 29.76 in Calm   2.0 mph 87% 0.00 in BKN
18:20 47.6 °F 43.9 °F 29.76 in Calm   3.0 mph 87% 0.00 in BKN
18:30 47.6 °F 43.6 °F 29.77 in Calm   3.0 mph 86% 0.00 in BKN
18:40 47.5 °F 43.5 °F 29.77 in NNE 1.0 mph 3.0 mph 86% 0.00 in BKN
18:50 47.5 °F 43.5 °F 29.78 in Calm   4.0 mph 86% 0.00 in BKN
19:00 47.4 °F 43.4 °F 29.78 in Calm   3.0 mph 86% 0.00 in BKN
19:10 47.3 °F 43.3 °F 29.78 in Calm   3.0 mph 86% 0.00 in BKN
19:20 47.2 °F 43.3 °F 29.78 in Calm   2.0 mph 86% 0.00 in BKN
19:30 47.1 °F 43.4 °F 29.79 in Calm   2.0 mph 87% 0.00 in BKN
19:40 47.1 °F 43.4 °F 29.78 in ENE 1.0 mph 3.0 mph 87% 0.00 in BKN
19:50 47.1 °F 43.4 °F 29.79 in Calm   3.0 mph 87% 0.00 in BKN
20:00 46.9 °F 43.3 °F 29.78 in Calm   3.0 mph 87% 0.00 in BKN
20:10 46.9 °F 43.3 °F 29.79 in Calm   3.0 mph 87% 0.00 in BKN
20:20 46.8 °F 43.1 °F 29.79 in Calm   4.0 mph 87% 0.00 in BKN
20:30 46.5 °F 42.9 °F 29.79 in Calm   4.0 mph 87% 0.00 in BKN
20:40 46.1 °F 42.4 °F 29.79 in Calm   7.0 mph 87% 0.00 in BKN
20:50 45.7 °F 42.1 °F 29.80 in NNW 1.0 mph 7.0 mph 87% 0.00 in BKN
21:00 45.5 °F 41.9 °F 29.80 in North 1.0 mph 10.0 mph 87% 0.00 in BKN
21:10 45.4 °F 41.5 °F 29.81 in NE 1.0 mph 6.0 mph 86% 0.00 in BKN
21:20 45.4 °F 41.5 °F 29.81 in ENE 3.0 mph 8.0 mph 86% 0.00 in BKN
21:30 45.4 °F 41.5 °F 29.81 in East 1.0 mph 6.0 mph 86% 0.00 in BKN
21:40 45.3 °F 41.4 °F 29.82 in Calm   5.0 mph 86% 0.00 in BKN
21:50 45.2 °F 41.3 °F 29.82 in NE 3.0 mph 8.0 mph 86% 0.00 in BKN
22:10 45.0 °F 41.4 °F 29.82 in ENE 3.0 mph 12.0 mph 87% 0.00 in BKN
22:20 44.7 °F 41.4 °F 29.83 in NE 3.0 mph 12.0 mph 88% 0.00 in BKN
22:30 44.5 °F 41.2 °F 29.83 in Calm   9.0 mph 88% 0.00 in BKN
22:40 44.4 °F 41.4 °F 29.83 in NNE 3.0 mph 6.0 mph 89% 0.00 in BKN
22:50 44.3 °F 41.3 °F 29.83 in NW 2.0 mph 10.0 mph 89% 0.00 in BKN
23:00 44.1 °F 41.1 °F 29.84 in Calm   10.0 mph 89% 0.00 in BKN
23:10 44.0 °F 41.0 °F 29.84 in ENE 2.0 mph 7.0 mph 89% 0.00 in BKN
23:20 43.8 °F 41.1 °F 29.84 in Calm   6.0 mph 90% 0.00 in BKN
23:30 43.6 °F 40.9 °F 29.84 in SE 2.0 mph 8.0 mph 90% 0.00 in BKN
23:40 43.4 °F 40.7 °F 29.85 in NNW 2.0 mph 5.0 mph 90% 0.00 in BKN
23:50 43.3 °F 40.8 °F 29.85 in Calm   2.0 mph 91% 0.00 in BKN
TarryTown NY Weather
Compliments of Weather Underground - 1.5 mb